Time;durP1;ratioP1;P1;durP2;ratioP2;P2;SDS_P1;SDS_P2;PMS_P1;PMS_P2;Temp;Humidity;BMP_temperature;BMP_pressure;BME280_temperature;BME280_humidity;BME280_pressure;Samples;Min_cycle;Max_cycle;Signal;HPM_P1;HPM_P2
2023/07/18 00:01:42;;;;;;;0.40;0.40;;;13.10;99.90;;;;;;4971647;28;20050;-77
2023/07/18 00:04:07;;;;;;;0.40;0.40;;;13.20;99.90;;;;;;4972091;28;20286;-77
2023/07/18 00:06:33;;;;;;;0.40;0.40;;;13.30;99.90;;;;;;4969081;28;20043;-77
2023/07/18 00:08:59;;;;;;;0.60;0.60;;;13.30;99.90;;;;;;4971001;28;20050;-77
2023/07/18 00:11:25;;;;;;;0.55;0.55;;;13.10;99.90;;;;;;4969441;28;20428;-77
2023/07/18 00:13:52;;;;;;;0.30;0.30;;;13.00;99.90;;;;;;4965599;28;20105;-77
2023/07/18 00:16:17;;;;;;;0.60;0.60;;;13.00;99.90;;;;;;4971230;28;20047;-77
2023/07/18 00:18:43;;;;;;;0.30;0.30;;;13.00;99.90;;;;;;4968554;28;20038;-77
2023/07/18 00:21:09;;;;;;;0.35;0.35;;;13.10;99.90;;;;;;4969738;28;20452;-77
2023/07/18 00:23:35;;;;;;;0.40;0.40;;;12.90;99.90;;;;;;4971061;28;20114;-77
2023/07/18 00:26:01;;;;;;;0.50;0.50;;;13.20;99.90;;;;;;4972142;28;20133;-77
2023/07/18 00:28:26;;;;;;;0.40;0.40;;;13.20;99.90;;;;;;4968163;28;20093;-77
2023/07/18 00:30:52;;;;;;;0.30;0.30;;;13.10;99.90;;;;;;4971490;28;20046;-77
2023/07/18 00:33:18;;;;;;;0.85;0.63;;;12.90;99.90;;;;;;4971500;28;20078;-77
2023/07/18 00:35:43;;;;;;;0.40;0.40;;;13.00;99.90;;;;;;4953497;28;20051;-77
2023/07/18 00:38:11;;;;;;;0.52;0.52;;;13.10;99.90;;;;;;4968766;28;20412;-77
2023/07/18 00:40:40;;;;;;;0.40;0.40;;;13.10;99.90;;;;;;4956327;28;20050;-77
2023/07/18 00:43:15;;;;;;;0.40;0.40;;;13.00;99.90;;;;;;4970816;28;20051;-77
2023/07/18 00:45:47;;;;;;;1.45;0.85;;;12.60;99.90;;;;;;4970770;28;20055;-77
2023/07/18 00:48:14;;;;;;;0.40;0.40;;;12.80;99.90;;;;;;4972476;28;20094;-77
2023/07/18 00:50:40;;;;;;;0.40;0.40;;;12.70;99.90;;;;;;4968693;28;20068;-77
2023/07/18 00:53:06;;;;;;;0.43;0.43;;;13.00;99.90;;;;;;4968795;28;20193;-77
2023/07/18 00:55:31;;;;;;;0.73;0.50;;;13.00;99.90;;;;;;4970723;28;20055;-77
2023/07/18 00:57:59;;;;;;;0.38;0.38;;;12.90;99.90;;;;;;4971186;28;20570;-76
2023/07/18 01:00:25;;;;;;;0.52;0.52;;;12.90;99.90;;;;;;4953312;28;20122;-76
2023/07/18 01:02:51;;;;;;;0.60;0.60;;;12.70;99.90;;;;;;4968748;28;20138;-76
2023/07/18 01:05:18;;;;;;;0.90;0.60;;;12.90;99.90;;;;;;4970104;28;20054;-76
2023/07/18 01:07:45;;;;;;;0.55;0.55;;;12.70;99.90;;;;;;4970774;28;20833;-77
2023/07/18 01:10:24;;;;;;;0.50;0.50;;;12.80;99.90;;;;;;4970581;28;20109;-77
2023/07/18 01:13:02;;;;;;;0.47;0.47;;;12.80;99.90;;;;;;4969985;28;20443;-77
2023/07/18 01:15:34;;;;;;;0.47;0.47;;;12.60;99.90;;;;;;4965940;28;20038;-76
2023/07/18 01:18:06;;;;;;;0.40;0.40;;;12.80;99.90;;;;;;4964954;28;20393;-77
2023/07/18 01:20:33;;;;;;;0.40;0.40;;;12.80;99.90;;;;;;4964463;28;20053;-76
2023/07/18 01:23:00;;;;;;;1.30;0.82;;;12.60;99.90;;;;;;4962539;28;20058;-77
2023/07/18 01:25:28;;;;;;;0.85;0.85;;;12.70;99.90;;;;;;4964945;28;20089;-76
2023/07/18 01:27:55;;;;;;;0.40;0.40;;;12.60;99.90;;;;;;4964574;28;20098;-77
2023/07/18 01:30:24;;;;;;;0.40;0.40;;;12.70;99.90;;;;;;4959672;28;20056;-77
2023/07/18 01:32:52;;;;;;;0.40;0.40;;;12.70;99.90;;;;;;4937584;28;20114;-77
2023/07/18 01:35:19;;;;;;;0.30;0.30;;;12.70;99.90;;;;;;4964816;28;20562;-76
2023/07/18 01:37:47;;;;;;;0.50;0.50;;;12.80;99.90;;;;;;4961244;28;20594;-76
2023/07/18 01:40:15;;;;;;;0.40;0.40;;;12.70;99.90;;;;;;4944757;29;20047;-76
2023/07/18 01:42:45;;;;;;;0.40;0.40;;;12.60;99.90;;;;;;4966812;28;20050;-76
2023/07/18 01:45:10;;;;;;;0.30;0.30;;;12.70;99.90;;;;;;4970885;28;20059;-76
2023/07/18 01:47:41;;;;;;;0.38;0.38;;;12.60;99.90;;;;;;4973545;28;20125;-76
2023/07/18 01:50:07;;;;;;;0.30;0.30;;;12.60;99.90;;;;;;4973389;28;20050;-76
2023/07/18 01:52:36;;;;;;;0.40;0.40;;;12.40;99.90;;;;;;4947458;28;20155;-76
2023/07/18 01:55:04;;;;;;;0.40;0.40;;;12.80;99.90;;;;;;4970058;28;20049;-77
2023/07/18 01:57:31;;;;;;;0.40;0.40;;;12.60;99.90;;;;;;4969473;28;20487;-77
2023/07/18 02:00:00;;;;;;;0.50;0.50;;;12.60;99.90;;;;;;4952198;28;20116;-77
2023/07/18 02:02:29;;;;;;;0.50;0.50;;;12.70;99.90;;;;;;4969726;28;20057;-76
2023/07/18 02:04:56;;;;;;;0.43;0.43;;;12.60;99.90;;;;;;4961827;28;20039;-76
2023/07/18 02:07:22;;;;;;;0.32;0.32;;;12.90;99.90;;;;;;4952265;28;20050;-77
2023/07/18 02:09:49;;;;;;;0.70;0.70;;;12.50;99.90;;;;;;4960498;28;20068;-77
2023/07/18 02:12:15;;;;;;;0.40;0.40;;;12.70;99.90;;;;;;4946593;28;20056;-77
2023/07/18 02:14:41;;;;;;;0.40;0.40;;;12.80;99.90;;;;;;4962501;28;20047;-77
2023/07/18 02:17:08;;;;;;;0.75;0.60;;;12.60;99.90;;;;;;4947665;28;20424;-77
2023/07/18 02:19:35;;;;;;;0.32;0.32;;;12.50;99.90;;;;;;4937521;28;20514;-77
2023/07/18 02:22:01;;;;;;;0.40;0.40;;;12.70;99.90;;;;;;4948038;28;20153;-77
2023/07/18 02:24:27;;;;;;;1.17;0.90;;;12.80;99.90;;;;;;4957433;28;20066;-77
2023/07/18 02:26:54;;;;;;;0.40;0.40;;;12.70;99.90;;;;;;4960991;28;20043;-77
2023/07/18 02:29:20;;;;;;;0.40;0.40;;;12.40;99.90;;;;;;4963085;28;20046;-77
2023/07/18 02:31:46;;;;;;;1.10;0.70;;;12.60;99.90;;;;;;4960664;28;20051;-77
2023/07/18 02:34:11;;;;;;;0.30;0.30;;;12.60;99.90;;;;;;4959909;28;20546;-76
2023/07/18 02:36:37;;;;;;;0.40;0.40;;;12.60;99.90;;;;;;4965345;28;20043;-77
2023/07/18 02:39:07;;;;;;;0.73;0.73;;;12.50;99.90;;;;;;4948238;28;20098;-77
2023/07/18 02:41:32;;;;;;;0.52;0.52;;;12.70;99.90;;;;;;4968706;28;20083;-77
2023/07/18 02:43:58;;;;;;;0.40;0.40;;;12.60;99.90;;;;;;4966111;28;20038;-76
2023/07/18 02:46:24;;;;;;;0.43;0.43;;;12.50;99.90;;;;;;4961225;28;20546;-77
2023/07/18 02:48:49;;;;;;;0.40;0.40;;;12.40;99.90;;;;;;4966517;28;20049;-77
2023/07/18 02:51:15;;;;;;;0.32;0.32;;;12.50;99.90;;;;;;4964289;28;20053;-76
2023/07/18 02:53:40;;;;;;;0.50;0.50;;;12.40;99.90;;;;;;4963179;28;20085;-76
2023/07/18 02:56:06;;;;;;;0.40;0.40;;;12.50;99.90;;;;;;4969504;28;20839;-77
2023/07/18 02:58:32;;;;;;;0.70;0.70;;;12.50;99.90;;;;;;4959881;28;20125;-76
2023/07/18 03:00:59;;;;;;;0.47;0.47;;;;;;;;;;4960364;28;20091;-76
2023/07/18 03:03:27;;;;;;;0.52;0.52;;;12.40;99.90;;;;;;4946144;28;20165;-77
2023/07/18 03:05:53;;;;;;;0.50;0.50;;;12.50;99.90;;;;;;4945864;28;20455;-77
2023/07/18 03:08:19;;;;;;;0.50;0.50;;;12.40;99.90;;;;;;4967283;28;20096;-76
2023/07/18 03:10:46;;;;;;;0.52;0.52;;;12.60;99.90;;;;;;4937926;28;20047;-77
2023/07/18 03:13:12;;;;;;;0.43;0.43;;;12.50;99.90;;;;;;4951504;28;20090;-77
2023/07/18 03:15:39;;;;;;;0.40;0.40;;;12.40;99.90;;;;;;4948795;28;20042;-77
2023/07/18 03:18:06;;;;;;;0.38;0.38;;;12.50;99.90;;;;;;4967294;28;20109;-77
2023/07/18 03:20:32;;;;;;;0.43;0.43;;;12.60;99.90;;;;;;4968476;28;20058;-77
2023/07/18 03:22:57;;;;;;;0.40;0.40;;;12.30;99.90;;;;;;4967936;28;20046;-77
2023/07/18 03:25:23;;;;;;;0.30;0.30;;;12.40;99.90;;;;;;4966533;28;20101;-76
2023/07/18 03:27:49;;;;;;;0.40;0.40;;;12.30;99.90;;;;;;4947066;28;20039;-77
2023/07/18 03:30:16;;;;;;;0.50;0.50;;;12.50;99.90;;;;;;4946378;28;20081;-77
2023/07/18 03:32:42;;;;;;;0.43;0.43;;;12.40;99.90;;;;;;4963792;28;20062;-77
2023/07/18 03:35:09;;;;;;;0.40;0.40;;;12.20;99.90;;;;;;4968704;28;20051;-77
2023/07/18 03:37:36;;;;;;;0.40;0.40;;;;;;;;;;4968030;28;20050;-77
2023/07/18 03:40:04;;;;;;;0.50;0.45;;;12.50;99.90;;;;;;4968223;28;20496;-76
2023/07/18 03:42:30;;;;;;;0.50;0.50;;;12.30;99.90;;;;;;4968317;28;20058;-77
2023/07/18 03:44:56;;;;;;;0.30;0.30;;;12.30;99.90;;;;;;4968074;28;20039;-77
2023/07/18 03:47:22;;;;;;;0.40;0.40;;;12.60;99.90;;;;;;4968740;28;20039;-77
2023/07/18 03:49:49;;;;;;;0.50;0.50;;;12.50;99.90;;;;;;4959712;28;20035;-76
2023/07/18 03:52:15;;;;;;;0.50;0.50;;;12.40;99.90;;;;;;4950081;28;20069;-77
2023/07/18 03:54:40;;;;;;;0.40;0.40;;;12.30;99.90;;;;;;4968458;28;20046;-76
2023/07/18 03:57:06;;;;;;;0.50;0.50;;;12.40;99.90;;;;;;4950530;28;20047;-77
2023/07/18 03:59:33;;;;;;;0.30;0.30;;;;;;;;;;4968179;28;20145;-77
2023/07/18 04:01:59;;;;;;;0.40;0.40;;;12.40;99.90;;;;;;4968089;28;20055;-76
2023/07/18 04:04:24;;;;;;;0.60;0.60;;;12.40;99.90;;;;;;4948555;28;20054;-76
2023/07/18 04:06:50;;;;;;;0.40;0.40;;;12.40;99.90;;;;;;4966949;28;20121;-77
2023/07/18 04:09:17;;;;;;;0.40;0.40;;;12.30;99.90;;;;;;4967524;28;20087;-77
2023/07/18 04:11:45;;;;;;;0.40;0.40;;;12.40;99.90;;;;;;4951377;28;20689;-77
2023/07/18 04:14:11;;;;;;;0.40;0.40;;;12.40;99.90;;;;;;4967732;28;20072;-76
2023/07/18 04:16:37;;;;;;;0.43;0.43;;;12.60;99.90;;;;;;4951944;28;20043;-77
2023/07/18 04:19:05;;;;;;;1.85;0.57;;;12.40;99.90;;;;;;4971875;28;20049;-76
2023/07/18 04:21:31;;;;;;;2.45;0.88;;;12.50;99.90;;;;;;4967832;28;20105;-77
2023/07/18 04:23:56;;;;;;;0.60;0.60;;;12.40;99.90;;;;;;4968211;28;20047;-76
2023/07/18 04:26:22;;;;;;;0.88;0.88;;;12.60;99.90;;;;;;4971698;28;20477;-76
2023/07/18 04:28:48;;;;;;;0.40;0.40;;;12.50;99.90;;;;;;4971546;28;20046;-77
2023/07/18 04:31:14;;;;;;;0.40;0.40;;;12.60;99.90;;;;;;4971508;28;20395;-77
2023/07/18 04:33:40;;;;;;;0.63;0.63;;;12.50;99.90;;;;;;4971044;28;20043;-76
2023/07/18 04:36:07;;;;;;;0.47;0.47;;;12.60;99.90;;;;;;4954362;28;21117;-77
2023/07/18 04:38:34;;;;;;;0.65;0.65;;;12.60;99.90;;;;;;4971087;28;20125;-77
2023/07/18 04:41:00;;;;;;;0.40;0.40;;;12.70;99.90;;;;;;4969700;28;20069;-76
2023/07/18 04:43:25;;;;;;;0.63;0.63;;;12.60;99.90;;;;;;4971371;28;20054;-77
2023/07/18 04:45:51;;;;;;;0.30;0.30;;;12.90;99.90;;;;;;4971004;28;20051;-76
2023/07/18 04:48:18;;;;;;;0.40;0.40;;;12.80;99.90;;;;;;4953719;28;20061;-77
2023/07/18 04:50:47;;;;;;;1.10;0.73;;;12.80;99.90;;;;;;4950846;28;20512;-77
2023/07/18 04:53:13;;;;;;;0.38;0.38;;;13.10;99.90;;;;;;4970124;28;20049;-77
2023/07/18 04:55:39;;;;;;;0.50;0.50;;;12.80;99.90;;;;;;4969531;28;20035;-77
2023/07/18 04:58:06;;;;;;;0.35;0.35;;;12.80;99.90;;;;;;4970391;28;20479;-77
2023/07/18 05:00:33;;;;;;;0.32;0.32;;;13.00;99.90;;;;;;4965345;28;20070;-76
2023/07/18 05:03:00;;;;;;;0.60;0.60;;;13.10;99.90;;;;;;4970905;28;20081;-76
2023/07/18 05:05:27;;;;;;;0.40;0.40;;;13.20;99.90;;;;;;4971379;28;20038;-77
2023/07/18 05:07:58;;;;;;;0.38;0.38;;;13.10;99.90;;;;;;4970174;28;20508;-77
2023/07/18 05:10:24;;;;;;;0.40;0.40;;;13.40;99.90;;;;;;4953113;28;20076;-77
2023/07/18 05:12:54;;;;;;;0.40;0.40;;;13.10;99.90;;;;;;4969116;28;20400;-76
2023/07/18 05:15:21;;;;;;;0.75;0.75;;;13.10;99.90;;;;;;4964119;28;20051;-77
2023/07/18 05:17:47;;;;;;;0.50;0.50;;;13.40;99.90;;;;;;4966162;28;20051;-76
2023/07/18 05:20:13;;;;;;;0.45;0.45;;;13.30;99.90;;;;;;4953146;28;20053;-77
2023/07/18 05:22:43;;;;;;;0.32;0.32;;;13.30;99.90;;;;;;4969753;28;20412;-77
2023/07/18 05:25:11;;;;;;;0.40;0.40;;;13.30;99.90;;;;;;4969487;28;20479;-77
2023/07/18 05:27:38;;;;;;;0.55;0.55;;;13.50;99.90;;;;;;4968450;28;20614;-77
2023/07/18 05:30:05;;;;;;;0.57;0.57;;;13.60;99.90;;;;;;4964556;28;20058;-77
2023/07/18 05:32:31;;;;;;;0.45;0.45;;;13.50;99.90;;;;;;4969641;28;20059;-77
2023/07/18 05:35:00;;;;;;;0.40;0.40;;;13.70;99.90;;;;;;4967071;28;20047;-76
2023/07/18 05:37:28;;;;;;;0.40;0.40;;;13.80;99.90;;;;;;4952070;28;20171;-76
2023/07/18 05:39:54;;;;;;;0.50;0.50;;;13.80;99.90;;;;;;4969893;28;21186;-77
2023/07/18 05:42:20;;;;;;;0.32;0.32;;;13.80;99.90;;;;;;4970056;28;20093;-77
2023/07/18 05:44:46;;;;;;;0.50;0.50;;;13.90;99.90;;;;;;4951176;28;20203;-77
2023/07/18 05:47:12;;;;;;;0.40;0.40;;;14.20;99.90;;;;;;4967506;28;20047;-76
2023/07/18 05:49:37;;;;;;;2.05;0.80;;;14.10;99.90;;;;;;4967278;28;20047;-77
2023/07/18 05:52:03;;;;;;;0.40;0.40;;;14.20;99.90;;;;;;4966822;28;20039;-76
2023/07/18 05:54:30;;;;;;;0.70;0.70;;;14.40;99.90;;;;;;4963245;28;20047;-76
2023/07/18 05:56:59;;;;;;;0.80;0.80;;;14.50;99.90;;;;;;4967936;28;20106;-76
2023/07/18 05:59:28;;;;;;;0.50;0.50;;;14.30;99.90;;;;;;4959492;28;20294;-77
2023/07/18 06:01:53;;;;;;;0.40;0.40;;;14.50;99.90;;;;;;4971697;28;20113;-75
2023/07/18 06:04:19;;;;;;;0.68;0.68;;;14.70;99.90;;;;;;4970627;28;20129;-76
2023/07/18 06:06:45;;;;;;;0.82;0.50;;;14.80;99.90;;;;;;4968672;28;20043;-77
2023/07/18 06:09:12;;;;;;;0.60;0.60;;;14.90;99.90;;;;;;4968764;28;20050;-76
2023/07/18 06:11:40;;;;;;;0.45;0.45;;;15.10;99.90;;;;;;4973672;28;20054;-76
2023/07/18 06:14:06;;;;;;;0.50;0.50;;;15.20;99.90;;;;;;4973699;28;20050;-77
2023/07/18 06:16:49;;;;;;;0.50;0.50;;;15.20;99.90;;;;;;4953723;28;20142;-77
2023/07/18 06:19:15;;;;;;;0.88;0.77;;;15.00;99.90;;;;;;4965904;28;20097;-77
2023/07/18 06:21:42;;;;;;;1.00;0.98;;;15.10;99.90;;;;;;4967431;28;20047;-77
2023/07/18 06:24:07;;;;;;;0.90;0.90;;;15.30;99.90;;;;;;4949098;28;20051;-77
2023/07/18 06:26:33;;;;;;;0.45;0.45;;;15.50;99.90;;;;;;4969492;28;20058;-76
2023/07/18 06:28:59;;;;;;;0.35;0.35;;;15.80;99.90;;;;;;4969113;28;20063;-76
2023/07/18 06:31:24;;;;;;;0.40;0.40;;;15.60;99.90;;;;;;4968568;28;20046;-76
2023/07/18 06:33:50;;;;;;;0.40;0.40;;;15.70;99.90;;;;;;4961884;28;20057;-77
2023/07/18 06:36:16;;;;;;;0.40;0.40;;;16.00;99.90;;;;;;4962633;28;20046;-77
2023/07/18 06:38:42;;;;;;;2.22;1.10;;;15.90;99.90;;;;;;4963288;28;20117;-76
2023/07/18 06:41:08;;;;;;;0.43;0.38;;;16.20;99.90;;;;;;4965608;28;20042;-77
2023/07/18 06:43:34;;;;;;;0.40;0.40;;;16.00;99.90;;;;;;4964547;28;20331;-77
2023/07/18 06:46:00;;;;;;;0.40;0.40;;;16.10;99.90;;;;;;4967909;28;20134;-76
2023/07/18 06:48:26;;;;;;;0.40;0.40;;;16.10;99.90;;;;;;4932107;28;20058;-76
2023/07/18 06:50:53;;;;;;;0.68;0.68;;;16.50;99.90;;;;;;4968764;28;20047;-77
2023/07/18 06:53:21;;;;;;;0.30;0.30;;;16.30;99.90;;;;;;4931329;28;20098;-77
2023/07/18 06:55:51;;;;;;;0.85;0.85;;;16.60;99.90;;;;;;4952707;28;20038;-77
2023/07/18 06:58:18;;;;;;;0.50;0.50;;;16.60;99.90;;;;;;4947875;28;20606;-78
2023/07/18 07:00:44;;;;;;;0.40;0.40;;;16.70;99.90;;;;;;4967001;28;20407;-77
2023/07/18 07:03:10;;;;;;;0.77;0.77;;;16.50;99.90;;;;;;4967699;28;20089;-77
2023/07/18 07:05:38;;;;;;;0.50;0.50;;;16.60;99.90;;;;;;4968702;28;20567;-77
2023/07/18 07:08:08;;;;;;;0.40;0.40;;;16.70;99.90;;;;;;4968226;28;20046;-77
2023/07/18 07:10:37;;;;;;;0.40;0.40;;;16.70;99.90;;;;;;4969862;28;20067;-77
2023/07/18 07:13:04;;;;;;;0.60;0.60;;;17.10;99.90;;;;;;4969931;28;20127;-78
2023/07/18 07:15:32;;;;;;;0.52;0.52;;;17.30;99.90;;;;;;4950453;28;20050;-77
2023/07/18 07:17:58;;;;;;;0.70;0.70;;;17.40;99.90;;;;;;4969306;28;20126;-78
2023/07/18 07:20:25;;;;;;;0.40;0.40;;;17.70;99.90;;;;;;4968616;28;20803;-78
2023/07/18 07:22:53;;;;;;;0.60;0.60;;;17.80;99.90;;;;;;4968794;28;20051;-78
2023/07/18 07:25:19;;;;;;;0.50;0.50;;;18.10;99.90;;;;;;4951115;28;20051;-78
2023/07/18 07:27:46;;;;;;;0.65;0.65;;;18.10;99.90;;;;;;4964729;28;20039;-78
2023/07/18 07:30:16;;;;;;;12.18;2.05;;;18.00;99.90;;;;;;4969891;28;20046;-78
2023/07/18 07:32:53;;;;;;;0.43;0.43;;;18.10;99.90;;;;;;4961985;28;20058;-78
2023/07/18 07:35:20;;;;;;;0.40;0.40;;;18.20;99.90;;;;;;4968849;28;20046;-77
2023/07/18 07:37:51;;;;;;;0.47;0.47;;;18.70;99.90;;;;;;4969270;28;20752;-78
2023/07/18 07:40:17;;;;;;;0.30;0.30;;;18.50;99.90;;;;;;4968335;28;20170;-77
2023/07/18 07:42:45;;;;;;;0.43;0.43;;;18.50;99.90;;;;;;4949896;28;20403;-77
2023/07/18 07:45:12;;;;;;;0.10;0.10;;;18.60;99.90;;;;;;4968724;28;20055;-77
2023/07/18 07:47:38;;;;;;;0.50;0.50;;;18.60;99.90;;;;;;4945229;28;20105;-77
2023/07/18 07:50:05;;;;;;;0.40;0.40;;;18.90;99.90;;;;;;4965915;28;20051;-77
2023/07/18 07:52:31;;;;;;;0.60;0.60;;;18.80;99.90;;;;;;4970744;28;20043;-77
2023/07/18 07:55:00;;;;;;;1.02;1.02;;;19.00;99.90;;;;;;4971899;28;20777;-77
2023/07/18 07:57:25;;;;;;;0.50;0.50;;;19.20;99.90;;;;;;4971809;28;20047;-76
2023/07/18 07:59:52;;;;;;;0.40;0.40;;;19.00;99.90;;;;;;4965195;28;20779;-77
2023/07/18 08:02:19;;;;;;;0.40;0.40;;;18.80;99.90;;;;;;4971833;28;20097;-76
2023/07/18 08:04:46;;;;;;;0.40;0.40;;;19.10;99.90;;;;;;4971711;28;20085;-78
2023/07/18 08:07:12;;;;;;;0.70;0.70;;;18.90;99.90;;;;;;4962990;28;20098;-76
2023/07/18 08:09:38;;;;;;;0.40;0.40;;;19.50;99.90;;;;;;4953016;28;20514;-76
2023/07/18 08:12:04;;;;;;;0.40;0.40;;;19.20;99.90;;;;;;4954837;28;20042;-76
2023/07/18 08:14:34;;;;;;;0.30;0.30;;;19.50;99.90;;;;;;4947696;28;20073;-76
2023/07/18 08:17:02;;;;;;;5.70;0.80;;;19.40;99.90;;;;;;4968956;28;20109;-76
2023/07/18 08:19:28;;;;;;;0.75;0.50;;;19.50;99.90;;;;;;4966566;28;20062;-77
2023/07/18 08:21:53;;;;;;;0.30;0.30;;;19.70;99.90;;;;;;4969009;28;20042;-77
2023/07/18 08:24:19;;;;;;;0.40;0.40;;;19.50;99.90;;;;;;4940874;28;20784;-76
2023/07/18 08:26:45;;;;;;;0.63;0.63;;;19.80;99.90;;;;;;4964631;28;20047;-77
2023/07/18 08:29:10;;;;;;;0.57;0.57;;;19.70;99.90;;;;;;4968315;28;20051;-76
2023/07/18 08:31:36;;;;;;;0.40;0.40;;;20.10;99.90;;;;;;4948731;28;20385;-77
2023/07/18 08:34:02;;;;;;;0.40;0.40;;;20.60;99.90;;;;;;4971152;28;20461;-77
2023/07/18 08:36:29;;;;;;;0.55;0.55;;;20.70;99.90;;;;;;4954438;28;20057;-76
2023/07/18 08:38:54;;;;;;;0.30;0.30;;;21.00;99.90;;;;;;4969539;28;20137;-76
2023/07/18 08:41:21;;;;;;;0.40;0.40;;;21.50;99.90;;;;;;4965760;28;20517;-77
2023/07/18 08:43:47;;;;;;;0.80;0.80;;;21.40;99.90;;;;;;4952340;28;20035;-77
2023/07/18 08:46:14;;;;;;;0.70;0.70;;;22.10;99.90;;;;;;4952751;28;20046;-77
2023/07/18 08:48:49;;;;;;;0.40;0.40;;;22.00;99.90;;;;;;4970617;28;20058;-78
2023/07/18 08:51:15;;;;;;;0.57;0.57;;;21.90;99.90;;;;;;4953561;28;20058;-77
2023/07/18 08:53:41;;;;;;;0.55;0.55;;;22.00;99.90;;;;;;4953465;28;20066;-77
2023/07/18 08:56:10;;;;;;;0.52;0.52;;;21.90;99.90;;;;;;4953219;28;20136;-78
2023/07/18 08:58:37;;;;;;;0.50;0.50;;;22.10;99.90;;;;;;4963052;28;20417;-79
2023/07/18 09:01:08;;;;;;;0.45;0.45;;;22.00;99.90;;;;;;4966431;28;20058;-78
2023/07/18 09:03:33;;;;;;;0.40;0.40;;;22.60;99.90;;;;;;4955507;28;20051;-79
2023/07/18 09:06:03;;;;;;;0.90;0.90;;;22.50;99.90;;;;;;4952651;28;20527;-78
2023/07/18 09:08:42;;;;;;;0.75;0.75;;;22.70;99.90;;;;;;4949588;28;20086;-79
2023/07/18 09:11:08;;;;;;;0.30;0.30;;;22.70;99.90;;;;;;4963980;28;20504;-79
2023/07/18 09:13:38;;;;;;;0.22;0.22;;;22.90;99.90;;;;;;4953447;28;20058;-79
2023/07/18 09:16:21;;;;;;;0.50;0.50;;;23.30;99.90;;;;;;4951649;28;20082;-79
2023/07/18 09:18:52;;;;;;;0.60;0.60;;;23.20;99.90;;;;;;4952063;28;21068;-78
2023/07/18 09:21:18;;;;;;;0.50;0.50;;;23.60;99.90;;;;;;4953392;28;20486;-80
2023/07/18 09:23:45;;;;;;;0.45;0.45;;;23.30;99.90;;;;;;4969803;28;20058;-78
2023/07/18 09:26:16;;;;;;;1.10;0.68;;;23.50;99.90;;;;;;4937099;28;20460;-79
2023/07/18 09:28:42;;;;;;;0.40;0.40;;;23.50;99.90;;;;;;4952950;28;20051;-79
2023/07/18 09:31:18;;;;;;;0.95;0.95;;;23.60;99.90;;;;;;4952677;28;20043;-78
2023/07/18 09:33:45;;;;;;;0.45;0.45;;;24.00;99.90;;;;;;4951905;28;20055;-78
2023/07/18 09:36:17;;;;;;;1.08;1.05;;;24.20;99.90;;;;;;4949233;28;20061;-78
2023/07/18 09:38:45;;;;;;;0.65;0.65;;;24.10;99.90;;;;;;4949774;28;20507;-78
2023/07/18 09:41:11;;;;;;;0.63;0.63;;;24.20;99.90;;;;;;4952282;28;20507;-78
2023/07/18 09:43:37;;;;;;;0.40;0.40;;;23.90;99.90;;;;;;4945155;28;20058;-79
2023/07/18 09:46:05;;;;;;;0.30;0.30;;;23.90;99.90;;;;;;4951534;28;20507;-79
2023/07/18 09:48:32;;;;;;;1.25;0.70;;;24.10;99.90;;;;;;4933358;28;20050;-79
2023/07/18 09:51:02;;;;;;;0.60;0.60;;;24.00;99.90;;;;;;4952461;28;20089;-80
2023/07/18 09:53:30;;;;;;;0.50;0.50;;;24.20;99.90;;;;;;4951896;28;20100;-79
2023/07/18 09:55:57;;;;;;;0.45;0.45;;;24.60;99.90;;;;;;4968476;28;20133;-79
2023/07/18 09:58:25;;;;;;;0.40;0.40;;;24.80;99.90;;;;;;4953173;28;20054;-79
2023/07/18 10:00:52;;;;;;;0.82;0.82;;;24.60;99.90;;;;;;4968710;28;20419;-79
2023/07/18 10:03:18;;;;;;;0.47;0.47;;;24.50;99.90;;;;;;4936154;28;20407;-79
2023/07/18 10:05:45;;;;;;;0.52;0.52;;;24.60;99.90;;;;;;4967934;28;20358;-79
2023/07/18 10:08:11;;;;;;;0.60;0.60;;;24.60;99.90;;;;;;4947337;28;20050;-79
2023/07/18 10:10:37;;;;;;;0.40;0.40;;;24.80;99.90;;;;;;4952765;28;20133;-78
2023/07/18 10:13:03;;;;;;;0.60;0.60;;;24.70;99.90;;;;;;4968747;28;20229;-78
2023/07/18 10:15:28;;;;;;;0.77;0.77;;;24.80;99.90;;;;;;4944753;28;20039;-79
2023/07/18 10:18:14;;;;;;;0.40;0.40;;;24.80;99.90;;;;;;4967616;28;20042;-78
2023/07/18 10:20:40;;;;;;;0.40;0.40;;;24.90;99.90;;;;;;4969001;28;20049;-78
2023/07/18 10:23:07;;;;;;;0.50;0.50;;;24.90;99.90;;;;;;4968823;28;20094;-78
2023/07/18 10:25:32;;;;;;;0.40;0.40;;;24.90;99.90;;;;;;4951975;28;20133;-77
2023/07/18 10:27:59;;;;;;;0.50;0.50;;;25.20;99.90;;;;;;4946950;29;20154;-77
2023/07/18 10:30:38;;;;;;;0.40;0.40;;;25.00;99.90;;;;;;4967666;28;20496;-76
2023/07/18 10:33:08;;;;;;;0.50;0.50;;;25.30;99.90;;;;;;4952548;28;20042;-76
2023/07/18 10:35:39;;;;;;;0.40;0.40;;;25.10;99.90;;;;;;4965574;28;20062;-76
2023/07/18 10:38:06;;;;;;;0.50;0.50;;;25.30;99.90;;;;;;4965469;28;20473;-76
2023/07/18 10:40:40;;;;;;;0.65;0.65;;;25.10;99.90;;;;;;4949159;28;20117;-75
2023/07/18 10:43:11;;;;;;;0.55;0.55;;;25.10;99.90;;;;;;4968640;28;20879;-76
2023/07/18 10:45:41;;;;;;;0.40;0.40;;;25.30;99.90;;;;;;4949647;28;20054;-76
2023/07/18 10:48:16;;;;;;;0.43;0.43;;;25.30;99.90;;;;;;4950923;28;20050;-76
2023/07/18 10:50:43;;;;;;;0.40;0.40;;;25.20;99.90;;;;;;4965361;28;20042;-76
2023/07/18 10:53:22;;;;;;;0.60;0.60;;;25.20;99.90;;;;;;4967851;28;20145;-76
2023/07/18 10:55:48;;;;;;;0.40;0.40;;;25.40;99.90;;;;;;4948000;28;20050;-75
2023/07/18 10:58:21;;;;;;;0.68;0.68;;;25.50;99.90;;;;;;4966921;28;20042;-76
2023/07/18 11:00:49;;;;;;;0.40;0.40;;;25.50;99.90;;;;;;4968401;28;20429;-76
2023/07/18 11:03:22;;;;;;;0.68;0.68;;;25.60;99.90;;;;;;4968787;28;20484;-75
2023/07/18 11:05:52;;;;;;;0.30;0.30;;;25.60;99.90;;;;;;4968696;28;20050;-75
2023/07/18 11:08:28;;;;;;;0.40;0.40;;;25.70;99.90;;;;;;4968163;28;20515;-76
2023/07/18 11:11:03;;;;;;;0.75;0.75;;;25.60;99.90;;;;;;4968748;28;20043;-76
2023/07/18 11:13:33;;;;;;;0.73;0.73;;;25.70;99.90;;;;;;4950513;28;20049;-75
2023/07/18 11:16:07;;;;;;;0.40;0.40;;;25.80;99.90;;;;;;4966232;28;20039;-75
2023/07/18 11:18:37;;;;;;;0.68;0.68;;;26.10;99.90;;;;;;4950646;28;20061;-75
2023/07/18 11:21:07;;;;;;;0.38;0.38;;;26.00;99.90;;;;;;4966170;28;20403;-75
2023/07/18 11:23:34;;;;;;;0.55;0.55;;;26.20;99.90;;;;;;4948314;28;20057;-75
2023/07/18 11:26:17;;;;;;;0.40;0.40;;;26.30;99.90;;;;;;4935824;28;20059;-75
2023/07/18 11:28:48;;;;;;;0.40;0.40;;;26.40;99.90;;;;;;4964013;28;20047;-75
2023/07/18 11:31:27;;;;;;;0.52;0.52;;;26.30;99.90;;;;;;4968902;28;20055;-75
2023/07/18 11:33:55;;;;;;;0.50;0.50;;;26.30;99.90;;;;;;4960541;28;20066;-75
2023/07/18 11:36:21;;;;;;;;;;;26.30;99.90;;;;;;4952491;28;20039;-76
2023/07/18 11:38:49;;;;;;;0.40;0.40;;;26.40;99.90;;;;;;4941395;28;20843;-75
2023/07/18 11:41:39;;;;;;;0.30;0.30;;;26.40;99.90;;;;;;4947811;28;20101;-75
2023/07/18 11:44:06;;;;;;;0.40;0.40;;;26.40;99.90;;;;;;4965259;28;20134;-75
2023/07/18 11:46:39;;;;;;;0.60;0.60;;;26.20;99.90;;;;;;4969953;28;20126;-76
2023/07/18 11:49:06;;;;;;;0.40;0.40;;;26.30;99.90;;;;;;4966286;28;20042;-76
2023/07/18 11:51:32;;;;;;;0.40;0.40;;;26.20;99.90;;;;;;4972600;28;20042;-76
2023/07/18 11:54:00;;;;;;;0.47;0.47;;;26.40;99.90;;;;;;4970741;28;20162;-77
2023/07/18 11:56:26;;;;;;;0.73;0.73;;;26.50;99.90;;;;;;4954299;28;20047;-76
2023/07/18 11:58:51;;;;;;;0.40;0.40;;;26.40;99.90;;;;;;4972291;28;20053;-76
2023/07/18 12:01:17;;;;;;;0.40;0.40;;;26.40;99.90;;;;;;4965227;28;20035;-76
2023/07/18 12:03:42;;;;;;;0.43;0.43;;;26.60;99.90;;;;;;4972933;28;20062;-77
2023/07/18 12:06:08;;;;;;;0.55;0.55;;;26.50;99.90;;;;;;4950349;28;20161;-78
2023/07/18 12:08:34;;;;;;;0.55;0.55;;;26.50;99.90;;;;;;4951454;28;20058;-78
2023/07/18 12:10:59;;;;;;;0.40;0.40;;;26.70;99.90;;;;;;4938488;28;20055;-78
2023/07/18 12:13:25;;;;;;;0.40;0.40;;;26.60;99.90;;;;;;4965171;28;20051;-77
2023/07/18 12:15:50;;;;;;;0.40;0.40;;;26.80;99.90;;;;;;4954974;28;20400;-77
2023/07/18 12:18:16;;;;;;;0.30;0.30;;;26.70;99.90;;;;;;4947271;28;20058;-76
2023/07/18 12:20:42;;;;;;;0.60;0.60;;;26.90;99.90;;;;;;4953154;28;20503;-78
2023/07/18 12:23:07;;;;;;;0.30;0.30;;;27.00;99.90;;;;;;4963058;28;20082;-78
2023/07/18 12:25:33;;;;;;;0.70;0.70;;;27.10;99.90;;;;;;4948930;28;20538;-78
2023/07/18 12:28:00;;;;;;;0.40;0.40;;;27.20;99.90;;;;;;4971212;28;20055;-77
2023/07/18 12:30:27;;;;;;;0.47;0.47;;;27.40;99.90;;;;;;4937388;28;20050;-77
2023/07/18 12:32:53;;;;;;;0.50;0.50;;;27.30;99.90;;;;;;4954098;28;20871;-77
2023/07/18 12:35:20;;;;;;;0.40;0.40;;;27.40;99.90;;;;;;4953754;28;20039;-77
2023/07/18 12:37:46;;;;;;;0.40;0.40;;;27.30;99.90;;;;;;4952604;28;20039;-77
2023/07/18 12:40:13;;;;;;;0.50;0.50;;;27.20;99.90;;;;;;4963607;28;20084;-77
2023/07/18 12:42:38;;;;;;;0.77;0.52;;;26.80;99.90;;;;;;4952870;28;20043;-77
2023/07/18 12:45:05;;;;;;;0.40;0.40;;;26.70;99.90;;;;;;4951587;28;20045;-78
2023/07/18 12:47:30;;;;;;;0.75;0.75;;;26.40;99.90;;;;;;4950612;28;20039;-78
2023/07/18 12:49:56;;;;;;;0.60;0.60;;;26.20;99.90;;;;;;4936601;28;20043;-78